Time;durP1;ratioP1;P1;durP2;ratioP2;P2;SDS_P1;SDS_P2;PMS_P1;PMS_P2;Temp;Humidity;BMP_temperature;BMP_pressure;BME280_temperature;BME280_humidity;BME280_pressure;Samples;Min_cycle;Max_cycle;Signal;HPM_P1;HPM_P2
2022/06/05 00:01:06;;;;;;;12.05;10.45;;;;;;;12.01;89.71;99004.84;4186161;28;20196;-71
2022/06/05 00:03:36;;;;;;;11.27;9.82;;;;;;;12.08;88.58;98993.03;4186312;28;20135;-71
2022/06/05 00:06:15;;;;;;;11.23;10.02;;;;;;;12.01;88.57;98992.94;4176460;28;20521;-71
2022/06/05 00:08:31;;;;;;;11.45;10.35;;;;;;;11.90;90.14;98984.47;4178587;28;20068;-71
2022/06/05 00:10:38;;;;;;;11.73;9.73;;;;;;;11.78;90.90;98991.00;4186018;28;20152;-71
2022/06/05 00:12:42;;;;;;;13.00;10.02;;;;;;;11.69;92.30;98989.66;4185602;28;20635;-71
2022/06/05 00:14:43;;;;;;;10.18;9.18;;;;;;;11.65;91.17;98988.81;4191381;28;20044;-71
2022/06/05 00:16:43;;;;;;;10.02;8.95;;;;;;;11.65;89.24;98989.59;4186252;28;20669;-71
2022/06/05 00:18:44;;;;;;;12.85;9.95;;;;;;;11.66;89.27;98979.31;4193164;28;20036;-71
2022/06/05 00:20:45;;;;;;;10.18;9.18;;;;;;;11.67;88.92;98978.97;4189666;28;20040;-71
2022/06/05 00:22:46;;;;;;;9.45;8.55;;;;;;;11.62;89.38;98984.81;4185861;28;20107;-71
2022/06/05 00:24:47;;;;;;;9.50;8.60;;;;;;;11.59;88.95;98982.81;4189591;28;20353;-71
2022/06/05 00:26:54;;;;;;;10.27;8.25;;;;;;;11.56;90.05;98979.97;4187827;28;20542;-71
2022/06/05 00:29:07;;;;;;;9.38;8.30;;;;;;;11.48;90.52;98976.28;4189422;28;20036;-71
2022/06/05 00:31:16;;;;;;;10.02;9.02;;;;;;;11.47;90.07;98966.38;4185493;28;20056;-71
2022/06/05 00:33:24;;;;;;;10.93;9.75;;;;;;;11.44;89.97;98959.59;4187307;28;20422;-71
2022/06/05 00:35:30;;;;;;;10.20;9.10;;;;;;;11.41;89.56;98962.31;4188489;28;20052;-71
2022/06/05 00:37:55;;;;;;;12.57;9.23;;;;;;;11.34;91.13;98967.75;4185743;28;20087;-71
2022/06/05 00:40:18;;;;;;;11.65;9.23;;;;;;;11.27;89.73;98967.63;4185436;28;20366;-71
2022/06/05 00:42:23;;;;;;;11.07;8.95;;;;;;;11.24;88.66;98963.63;4188616;28;20060;-71
2022/06/05 00:44:38;;;;;;;10.43;9.38;;;;;;;11.20;89.28;98955.25;4190422;28;20059;-71
2022/06/05 00:46:39;;;;;;;10.65;9.50;;;;;;;11.26;88.93;98958.53;4189279;28;20048;-71
2022/06/05 00:48:39;;;;;;;12.07;9.85;;;;;;;11.26;89.58;98950.22;4187326;28;20139;-71
2022/06/05 00:50:42;;;;;;;10.85;9.55;;;;;;;11.27;89.44;98953.78;4188684;28;20048;-71
2022/06/05 00:52:46;;;;;;;11.45;9.50;;;;;;;11.21;90.54;98956.06;4193631;28;20047;-71
2022/06/05 00:54:46;;;;;;;11.68;9.85;;;;;;;11.12;90.88;98950.78;4193103;28;20032;-71
2022/06/05 00:56:47;;;;;;;15.20;10.80;;;;;;;11.06;90.94;98945.91;4189002;28;20045;-71
2022/06/05 00:58:47;;;;;;;11.70;9.88;;;;;;;11.02;91.10;98939.53;4190517;28;20101;-70
2022/06/05 01:00:51;;;;;;;14.10;10.55;;;;;;;11.04;90.62;98953.78;4188540;28;20468;-71
2022/06/05 01:02:54;;;;;;;15.13;11.73;;;;;;;11.00;92.11;98950.16;4188086;28;20181;-71
2022/06/05 01:04:55;;;;;;;13.35;10.70;;;;;;;11.07;91.38;98950.28;4191027;28;20330;-71
2022/06/05 01:06:56;;;;;;;14.27;12.80;;;;;;;11.13;90.43;98951.56;4188512;28;20657;-71
2022/06/05 01:08:56;;;;;;;15.07;13.48;;;;;;;11.12;91.48;98959.09;4193574;28;20040;-71
2022/06/05 01:11:22;;;;;;;19.35;14.48;;;;;;;11.12;93.94;98958.28;4189073;28;20123;-71
2022/06/05 01:13:58;;;;;;;16.52;14.50;;;;;;;11.07;94.31;98962.16;4191374;28;20087;-71
2022/06/05 01:16:16;;;;;;;15.05;13.43;;;;;;;11.05;94.17;98956.19;4187674;28;20048;-71
2022/06/05 01:18:24;;;;;;;14.95;13.45;;;;;;;11.08;91.58;98960.19;4187350;28;20083;-71
2022/06/05 01:20:39;;;;;;;20.25;14.00;;;;;;;11.11;91.42;98957.47;4195217;27;20464;-71
2022/06/05 01:23:17;;;;;;;15.55;13.15;;;;;;;11.05;92.44;98956.19;4193484;28;20817;-71
2022/06/05 01:25:34;;;;;;;15.38;13.25;;;;;;;11.01;92.48;98962.84;4190228;28;20135;-71
2022/06/05 01:27:38;;;;;;;16.02;14.18;;;;;;;10.93;94.34;98956.38;4188072;28;20036;-71
2022/06/05 01:29:49;;;;;;;15.77;14.07;;;;;;;10.94;91.93;98949.69;4187658;28;20348;-71
2022/06/05 01:32:02;;;;;;;15.43;13.70;;;;;;;10.89;92.24;98934.16;4187414;28;20544;-71
2022/06/05 01:34:02;;;;;;;;;;;;;;;10.92;92.19;98946.44;4188351;28;20056;-71
2022/06/05 01:36:16;;;;;;;18.08;14.48;;;;;;;10.85;93.95;98935.28;4190333;28;20253;-72
2022/06/05 01:38:29;;;;;;;18.10;14.80;;;;;;;10.68;96.26;98934.59;4192274;28;20449;-70
2022/06/05 01:40:34;;;;;;;15.25;13.02;;;;;;;10.57;97.69;98930.81;4188137;28;20484;-71
2022/06/05 01:42:40;;;;;;;14.98;13.27;;;;;;;10.51;97.21;98934.22;4194442;28;20555;-71
2022/06/05 01:44:47;;;;;;;15.63;13.93;;;;;;;10.50;96.29;98935.41;4187818;28;20499;-71
2022/06/05 01:46:49;;;;;;;15.57;13.73;;;;;;;10.46;97.28;98940.09;4187227;28;20141;-71
2022/06/05 01:49:11;;;;;;;14.98;12.88;;;;;;;10.47;95.57;98939.72;4187080;28;20145;-71
2022/06/05 01:51:27;;;;;;;16.88;14.68;;;;;;;10.44;95.94;98929.38;4187411;28;20041;-71
2022/06/05 01:53:34;;;;;;;15.60;12.90;;;;;;;10.45;97.35;98933.75;4187644;28;20373;-71
2022/06/05 01:55:55;;;;;;;14.05;12.50;;;;;;;10.45;97.56;98933.75;4187452;28;20067;-70
2022/06/05 01:58:00;;;;;;;13.90;12.40;;;;;;;10.38;97.72;98928.88;4186807;28;20962;-71
2022/06/05 02:00:10;;;;;;;15.18;11.80;;;;;;;10.36;97.87;98925.69;4186711;28;20072;-71
2022/06/05 02:02:16;;;;;;;16.63;12.55;;;;;;;10.31;99.08;98920.44;4186937;28;20028;-71
2022/06/05 02:04:23;;;;;;;11.95;10.55;;;;;;;10.29;99.27;98922.78;4187393;28;20028;-71
2022/06/05 02:06:53;;;;;;;12.95;11.52;;;;;;;10.17;99.94;98920.13;4186911;28;20032;-71
2022/06/05 02:09:06;;;;;;;17.58;12.13;;;;;;;10.07;100.00;98935.34;4186546;28;20822;-71
2022/06/05 02:11:20;;;;;;;12.27;10.85;;;;;;;10.02;100.00;98932.88;4187592;28;20041;-71
2022/06/05 02:13:20;;;;;;;12.90;10.82;;;;;;;10.01;99.94;98936.81;4187839;28;20048;-71
2022/06/05 02:15:21;;;;;;;13.13;11.13;;;;;;;10.02;97.16;98937.59;4188315;28;20036;-71
2022/06/05 02:17:22;;;;;;;13.75;10.75;;;;;;;10.05;98.01;98934.91;4191251;28;20060;-71
2022/06/05 02:19:23;;;;;;;13.18;10.85;;;;;;;10.02;98.37;98934.84;4186491;28;20044;-71
2022/06/05 02:21:23;;;;;;;12.05;10.75;;;;;;;10.04;99.18;98932.50;4193977;28;20072;-71
2022/06/05 02:23:27;;;;;;;12.00;10.80;;;;;;;10.04;97.59;98929.75;4187180;28;20045;-71
2022/06/05 02:25:28;;;;;;;12.23;10.93;;;;;;;9.95;99.15;98920.88;4190052;28;20040;-71
2022/06/05 02:27:28;;;;;;;12.95;11.07;;;;;;;9.90;99.90;98930.22;4188434;28;20043;-71
2022/06/05 02:29:30;;;;;;;12.95;10.85;;;;;;;9.87;100.00;98933.72;4186380;28;20132;-71
2022/06/05 02:31:33;;;;;;;12.45;10.90;;;;;;;9.85;99.51;98930.53;4193220;28;20086;-71
2022/06/05 02:33:33;;;;;;;12.68;11.00;;;;;;;9.80;99.47;98930.81;4188267;28;20048;-71
2022/06/05 02:36:06;;;;;;;11.95;10.43;;;;;;;9.76;99.02;98932.69;4186673;28;20051;-71
2022/06/05 02:38:19;;;;;;;11.88;10.45;;;;;;;9.74;98.85;98935.81;4187089;28;20051;-71
2022/06/05 02:40:32;;;;;;;12.57;11.27;;;;;;;9.77;97.95;98940.63;4188993;28;20036;-70
2022/06/05 02:42:37;;;;;;;11.25;10.05;;;;;;;9.77;97.65;98937.88;4188849;28;20076;-70
2022/06/05 02:44:55;;;;;;;13.20;11.70;;;;;;;9.77;96.98;98934.31;4185809;28;20067;-71
2022/06/05 02:46:55;;;;;;;12.65;11.25;;;;;;;9.73;98.44;98930.66;4186838;28;20539;-71
2022/06/05 02:49:10;;;;;;;13.05;11.30;;;;;;;9.68;98.77;98928.16;4187147;28;20040;-71
2022/06/05 02:51:16;;;;;;;15.05;13.43;;;;;;;9.57;100.00;98914.91;4186590;28;20243;-71
2022/06/05 02:53:16;;;;;;;13.32;11.73;;;;;;;9.55;100.00;98920.00;4186862;28;20920;-71
2022/06/05 02:55:21;;;;;;;14.18;12.65;;;;;;;9.49;99.50;98924.19;4186504;28;20045;-71
2022/06/05 02:57:22;;;;;;;14.32;12.82;;;;;;;9.46;100.00;98922.16;4187063;28;20051;-71
2022/06/05 02:59:26;;;;;;;18.48;13.57;;;;;;;9.41;100.00;98916.91;4186320;28;20041;-70
2022/06/05 03:03:46;;;;;;;14.95;13.10;;;;;;;9.33;100.00;98917.13;4186022;28;20051;-71
2022/06/05 03:05:46;;;;;;;16.05;13.93;;;;;;;9.32;100.00;98913.56;4186674;28;20127;-71
2022/06/05 03:07:47;;;;;;;16.17;13.32;;;;;;;9.29;100.00;98917.03;4186570;28;20080;-70
2022/06/05 03:09:47;;;;;;;15.75;13.38;;;;;;;9.29;100.00;98917.84;4186751;28;20135;-70
2022/06/05 03:11:48;;;;;;;15.18;13.00;;;;;;;9.33;100.00;98914.34;4186840;28;20044;-70
2022/06/05 03:13:48;;;;;;;14.45;12.77;;;;;;;9.33;100.00;98925.41;4186422;28;20045;-71
2022/06/05 03:15:50;;;;;;;18.77;12.95;;;;;;;9.37;100.00;98912.50;4191703;28;20145;-71
2022/06/05 03:17:50;;;;;;;15.77;12.65;;;;;;;9.40;99.14;98903.47;4186584;28;20048;-71
2022/06/05 03:19:50;;;;;;;14.20;12.02;;;;;;;9.42;99.89;98906.66;4186147;28;20043;-71
2022/06/05 03:21:51;;;;;;;13.82;12.23;;;;;;;9.45;100.00;98903.19;4186124;28;20052;-71
2022/06/05 03:23:51;;;;;;;15.50;12.77;;;;;;;9.43;100.00;98898.03;4188148;28;20037;-71
2022/06/05 03:25:52;;;;;;;15.88;13.52;;;;;;;9.44;100.00;98901.59;4186637;28;20486;-71
2022/06/05 03:27:54;;;;;;;16.38;13.30;;;;;;;9.41;100.00;98905.88;4186250;28;20392;-70
2022/06/05 03:29:54;;;;;;;14.30;12.68;;;;;;;9.42;100.00;98903.91;4191171;28;20052;-71
2022/06/05 03:31:54;;;;;;;14.13;12.32;;;;;;;9.41;99.81;98894.03;4186321;28;20049;-71
2022/06/05 03:33:55;;;;;;;13.48;11.75;;;;;;;9.42;99.61;98895.63;4196278;28;20036;-71
2022/06/05 03:35:55;;;;;;;13.15;11.77;;;;;;;9.41;99.55;98880.22;4186321;28;20249;-71
2022/06/05 03:37:56;;;;;;;13.75;12.35;;;;;;;9.44;99.33;98882.28;4186530;28;20054;-71
2022/06/05 03:39:56;;;;;;;13.63;12.05;;;;;;;9.48;97.77;98875.66;4185645;28;20036;-70
2022/06/05 03:41:57;;;;;;;15.48;12.73;;;;;;;9.52;97.62;98859.97;4185649;28;20048;-71
2022/06/05 03:43:57;;;;;;;16.13;11.57;;;;;;;9.57;97.63;98856.91;4191666;28;20032;-71
2022/06/05 03:46:01;;;;;;;13.90;12.35;;;;;;;9.63;97.47;98856.63;4186563;28;20297;-71
2022/06/05 03:48:02;;;;;;;13.25;11.88;;;;;;;9.62;96.99;98847.53;4185977;28;20043;-71
2022/06/05 03:50:03;;;;;;;15.48;12.88;;;;;;;9.64;97.88;98849.94;4185424;28;20032;-71
2022/06/05 03:52:04;;;;;;;15.68;13.10;;;;;;;9.67;97.80;98851.97;4188936;28;20028;-71
2022/06/05 03:54:05;;;;;;;14.27;12.77;;;;;;;9.73;98.08;98856.06;4186156;28;20064;-71
2022/06/05 03:56:10;;;;;;;14.55;13.05;;;;;;;9.80;95.71;98856.19;4187708;28;20031;-71
2022/06/05 03:58:10;;;;;;;15.35;13.48;;;;;;;9.85;96.10;98844.88;4189846;28;20080;-71
2022/06/05 04:00:12;;;;;;;15.43;12.65;;;;;;;9.92;95.53;98847.75;4185273;28;20034;-71
2022/06/05 04:02:12;;;;;;;16.52;12.38;;;;;;;9.98;95.70;98842.72;4185672;28;20039;-71
2022/06/05 04:04:12;;;;;;;15.68;13.52;;;;;;;10.04;95.36;98844.84;4186284;28;20025;-71
2022/06/05 04:06:14;;;;;;;15.05;13.40;;;;;;;10.10;95.81;98840.63;4186226;28;20028;-71
2022/06/05 04:08:16;;;;;;;14.93;13.32;;;;;;;10.23;94.10;98840.47;4189784;28;20039;-71
2022/06/05 04:10:18;;;;;;;17.65;13.98;;;;;;;10.37;93.97;98838.78;4186040;28;20064;-71
2022/06/05 04:12:18;;;;;;;16.70;12.60;;;;;;;10.47;92.74;98831.03;4185319;28;20116;-71
2022/06/05 04:14:19;;;;;;;22.33;14.02;;;;;;;10.58;93.09;98843.06;4186345;28;20056;-71
2022/06/05 04:16:22;;;;;;;15.65;12.88;;;;;;;10.67;92.16;98838.91;4187911;28;20028;-71
2022/06/05 04:18:22;;;;;;;14.25;12.55;;;;;;;10.78;91.41;98839.06;4194707;28;20044;-71
2022/06/05 04:20:23;;;;;;;15.73;13.07;;;;;;;10.89;91.33;98837.28;4189520;28;20109;-71
2022/06/05 04:22:23;;;;;;;12.95;11.63;;;;;;;10.99;91.32;98841.38;4191773;28;20098;-71
2022/06/05 04:24:23;;;;;;;14.50;12.57;;;;;;;11.08;93.08;98843.88;4192718;28;20170;-71
2022/06/05 04:26:26;;;;;;;19.95;13.43;;;;;;;11.16;92.70;98838.06;4188783;28;20376;-71
2022/06/05 04:28:27;;;;;;;17.60;14.40;;;;;;;11.29;93.31;98846.19;4188048;28;20631;-71
2022/06/05 04:30:27;;;;;;;15.05;13.32;;;;;;;11.38;93.71;98847.50;4189299;28;20079;-70
2022/06/05 04:32:28;;;;;;;19.45;14.35;;;;;;;11.46;95.23;98837.31;4189274;28;20044;-71
2022/06/05 04:34:28;;;;;;;14.85;13.10;;;;;;;11.57;94.36;98843.78;4189478;28;20422;-71
2022/06/05 04:36:29;;;;;;;14.77;13.18;;;;;;;11.62;96.42;98851.00;4191170;27;20468;-71
2022/06/05 04:38:29;;;;;;;18.33;13.48;;;;;;;11.67;93.75;98854.25;4188215;28;20349;-71
2022/06/05 04:40:30;;;;;;;16.95;13.05;;;;;;;11.76;92.37;98863.06;4188716;28;20620;-70
2022/06/05 04:42:30;;;;;;;16.58;13.20;;;;;;;11.85;93.19;98856.47;4188907;28;20044;-71
2022/06/05 04:44:30;;;;;;;17.10;14.43;;;;;;;11.93;93.02;98853.41;4188538;28;20043;-71
2022/06/05 04:46:31;;;;;;;17.23;13.68;;;;;;;12.03;93.40;98854.69;4189009;28;20208;-71
2022/06/05 04:48:33;;;;;;;21.75;15.80;;;;;;;12.13;94.92;98854.00;4187921;28;20386;-70
2022/06/05 04:50:33;;;;;;;15.90;13.25;;;;;;;12.20;94.68;98854.09;4188635;28;20052;-70
2022/06/05 04:52:34;;;;;;;16.63;13.55;;;;;;;12.29;95.76;98859.34;4194531;28;20287;-70
2022/06/05 04:54:34;;;;;;;18.33;14.98;;;;;;;12.37;96.57;98858.25;4188457;28;20032;-71
2022/06/05 04:56:35;;;;;;;17.50;14.75;;;;;;;12.43;96.19;98850.38;4193056;28;20157;-71
2022/06/05 04:58:35;;;;;;;22.67;15.00;;;;;;;12.50;95.80;98862.34;4189388;28;20068;-71
2022/06/05 05:00:36;;;;;;;16.58;13.98;;;;;;;12.57;95.22;98858.81;4188759;28;20044;-71
2022/06/05 05:02:37;;;;;;;16.70;14.35;;;;;;;12.65;96.04;98868.81;4188298;28;20087;-71
2022/06/05 05:04:37;;;;;;;19.27;13.93;;;;;;;12.73;96.07;98864.91;4189431;28;20043;-71
2022/06/05 05:06:40;;;;;;;25.15;15.48;;;;;;;12.80;95.56;98869.75;4192856;28;20379;-71
2022/06/05 05:08:40;;;;;;;21.40;15.35;;;;;;;12.89;95.70;98867.44;4187305;28;20451;-71
2022/06/05 05:10:41;;;;;;;17.45;14.25;;;;;;;12.98;95.89;98864.34;4188518;28;20049;-71
2022/06/05 05:12:41;;;;;;;16.00;14.32;;;;;;;13.02;95.25;98862.41;4188171;28;20044;-71
2022/06/05 05:14:42;;;;;;;16.73;14.90;;;;;;;13.09;94.83;98859.69;4188906;28;20097;-71
2022/06/05 05:16:42;;;;;;;21.33;15.43;;;;;;;13.15;94.44;98864.47;4188647;28;20036;-70
2022/06/05 05:18:43;;;;;;;17.23;14.48;;;;;;;13.21;93.42;98854.63;4187625;28;20048;-71
2022/06/05 05:20:43;;;;;;;19.70;17.25;;;;;;;13.32;94.27;98863.06;4192859;27;20302;-71
2022/06/05 05:22:44;;;;;;;22.95;16.38;;;;;;;13.39;94.12;98859.50;4187908;28;20283;-71
2022/06/05 05:24:45;;;;;;;17.45;15.55;;;;;;;13.41;92.59;98857.94;4186476;28;20037;-71
2022/06/05 05:26:45;;;;;;;17.33;15.48;;;;;;;13.48;92.85;98862.72;4187407;28;20075;-71
2022/06/05 05:28:45;;;;;;;15.38;13.43;;;;;;;13.56;91.63;98869.13;4187253;28;20041;-71
2022/06/05 05:30:46;;;;;;;18.60;16.30;;;;;;;13.61;91.55;98854.88;4193900;28;20121;-71
2022/06/05 05:32:46;;;;;;;19.52;17.00;;;;;;;13.66;92.74;98851.72;4188485;28;20066;-71
2022/06/05 05:34:47;;;;;;;17.45;14.63;;;;;;;13.70;91.17;98845.00;4185926;28;20066;-71
2022/06/05 05:36:47;;;;;;;17.42;15.43;;;;;;;13.76;91.07;98831.50;4187546;28;20068;-71
2022/06/05 05:43:30;;;;;;;19.08;15.93;;;;;;;13.98;91.07;98827.63;4189490;28;20047;-71
2022/06/05 05:45:30;;;;;;;18.60;15.70;;;;;;;14.10;91.88;98820.13;4187281;28;20037;-71
2022/06/05 05:47:32;;;;;;;19.50;15.70;;;;;;;14.19;91.75;98812.97;4189495;27;20300;-71
2022/06/05 05:49:33;;;;;;;18.57;16.57;;;;;;;14.22;93.47;98801.03;4185249;28;20048;-71
2022/06/05 05:51:33;;;;;;;21.60;17.08;;;;;;;14.29;93.77;98797.50;4174893;28;20040;-71
2022/06/05 05:53:34;;;;;;;31.15;17.08;;;;;;;14.38;92.63;98788.75;4138274;27;20481;-71
2022/06/05 05:55:34;;;;;;;18.63;16.63;;;;;;;14.45;92.68;98780.41;4187445;28;20040;-71
2022/06/05 05:57:34;;;;;;;21.40;17.70;;;;;;;14.60;92.94;98779.25;4188261;28;20460;-71
2022/06/05 05:59:35;;;;;;;20.48;17.83;;;;;;;14.80;94.41;98774.88;4183310;28;20041;-71
2022/06/05 06:01:36;;;;;;;19.52;17.45;;;;;;;14.97;93.91;98776.03;4181711;28;20049;-71
2022/06/05 06:03:36;;;;;;;19.90;17.83;;;;;;;15.13;91.48;98779.19;4181680;28;20044;-71
2022/06/05 06:05:37;;;;;;;19.95;17.90;;;;;;;15.28;89.88;98771.59;4186404;28;20033;-71
2022/06/05 06:07:37;;;;;;;19.42;17.33;;;;;;;15.42;89.63;98773.56;4186446;28;20048;-71
2022/06/05 06:09:39;;;;;;;20.25;17.60;;;;;;;15.55;89.45;98765.53;4188142;28;20535;-71
2022/06/05 06:11:39;;;;;;;20.20;16.27;;;;;;;15.69;87.11;98760.72;4187161;28;20388;-71
2022/06/05 06:13:39;;;;;;;19.02;17.15;;;;;;;15.80;89.16;98759.88;4188222;28;20039;-71
2022/06/05 06:15:40;;;;;;;19.33;16.75;;;;;;;15.82;85.42;98751.91;4186749;28;20048;-71
2022/06/05 06:17:40;;;;;;;19.98;17.75;;;;;;;15.93;86.13;98772.97;4186272;28;20036;-71
2022/06/05 06:19:40;;;;;;;21.08;17.35;;;;;;;16.00;86.94;98772.16;4185790;28;20512;-71
2022/06/05 06:21:41;;;;;;;20.83;17.23;;;;;;;16.07;85.83;98769.31;4189537;27;20097;-71
2022/06/05 06:23:41;;;;;;;17.92;16.02;;;;;;;16.13;84.71;98766.88;4186314;28;20067;-71
2022/06/05 06:25:42;;;;;;;21.75;17.90;;;;;;;16.17;84.74;98768.44;4186365;28;20543;-71
2022/06/05 06:27:43;;;;;;;22.38;16.77;;;;;;;16.23;84.20;98766.03;4186112;28;20037;-71
2022/06/05 06:29:44;;;;;;;18.13;16.23;;;;;;;16.30;84.71;98768.75;4184551;28;20047;-71
2022/06/05 06:31:45;;;;;;;18.00;16.23;;;;;;;16.37;83.72;98759.53;4187010;28;20135;-71
2022/06/05 06:33:48;;;;;;;17.77;15.98;;;;;;;16.46;83.02;98757.06;4187447;28;20064;-71
2022/06/05 06:35:48;;;;;;;16.90;15.20;;;;;;;16.48;79.41;98761.06;4186575;27;20040;-71
2022/06/05 06:37:48;;;;;;;17.20;15.50;;;;;;;16.55;77.50;98757.44;4190506;28;20365;-71
2022/06/05 06:39:49;;;;;;;16.67;15.07;;;;;;;16.64;81.00;98756.94;4186916;28;20072;-71
2022/06/05 06:41:50;;;;;;;17.85;15.23;;;;;;;16.71;80.63;98760.47;4189983;27;20483;-71
2022/06/05 06:43:50;;;;;;;17.35;15.48;;;;;;;16.78;80.54;98754.03;4188920;27;20040;-71
2022/06/05 06:45:51;;;;;;;17.83;15.80;;;;;;;16.87;81.01;98759.16;4186702;28;20032;-71
2022/06/05 06:47:51;;;;;;;20.20;16.67;;;;;;;16.98;81.93;98762.66;4187188;28;20391;-71
2022/06/05 06:49:51;;;;;;;20.85;18.75;;;;;;;17.09;81.40;98760.53;4197545;28;20749;-71
2022/06/05 06:51:52;;;;;;;21.13;19.02;;;;;;;17.23;83.44;98765.22;4186081;28;20068;-71
2022/06/05 06:53:52;;;;;;;19.08;17.08;;;;;;;17.33;80.46;98767.88;4186926;28;20055;-71
2022/06/05 06:55:52;;;;;;;19.08;17.17;;;;;;;17.42;81.78;98773.75;4187168;28;20056;-71
2022/06/05 06:57:53;;;;;;;19.20;17.23;;;;;;;17.50;80.72;98768.09;4186960;28;20353;-71
2022/06/05 06:59:55;;;;;;;16.90;15.30;;;;;;;17.52;80.11;98765.66;4187379;28;20052;-71
2022/06/05 07:01:55;;;;;;;19.15;17.33;;;;;;;17.49;77.93;98760.91;4190832;27;20148;-71
2022/06/05 07:03:56;;;;;;;18.80;16.92;;;;;;;17.54;78.62;98752.88;4185586;28;20145;-71
2022/06/05 07:05:57;;;;;;;18.63;16.73;;;;;;;17.62;78.84;98748.75;4187835;27;20488;-71
2022/06/05 07:07:57;;;;;;;18.95;17.00;;;;;;;17.69;79.92;98759.06;4189674;28;20032;-71
2022/06/05 07:09:58;;;;;;;18.60;16.70;;;;;;;17.74;79.50;98755.03;4185859;28;20306;-71
2022/06/05 07:11:58;;;;;;;20.33;17.83;;;;;;;17.78;79.24;98755.78;4184993;28;20044;-71
2022/06/05 07:13:58;;;;;;;19.05;17.15;;;;;;;17.75;78.43;98749.03;4193558;28;20075;-71
2022/06/05 07:15:59;;;;;;;17.90;16.08;;;;;;;17.80;78.78;98745.78;4189373;28;20040;-71
2022/06/05 07:18:08;;;;;;;19.55;17.65;;;;;;;17.84;77.75;98749.28;4187597;27;20143;-71
2022/06/05 07:20:09;;;;;;;19.20;17.17;;;;;;;17.80;78.81;98744.97;4185298;28;20140;-71
2022/06/05 07:22:10;;;;;;;18.98;17.02;;;;;;;17.85;79.16;98753.69;4186903;28;20042;-71
2022/06/05 07:24:10;;;;;;;17.85;16.13;;;;;;;17.87;78.94;98745.69;4192128;28;20457;-71
2022/06/05 07:26:13;;;;;;;17.70;15.90;;;;;;;17.97;78.81;98729.94;4189496;28;20032;-71
2022/06/05 07:28:14;;;;;;;18.58;16.67;;;;;;;18.10;77.81;98730.13;4186758;28;20032;-71
2022/06/05 07:30:14;;;;;;;18.85;16.95;;;;;;;18.20;80.18;98727.19;4185584;28;20024;-71
2022/06/05 07:32:15;;;;;;;18.48;16.58;;;;;;;18.21;77.96;98722.41;4185970;28;20315;-71
2022/06/05 07:34:15;;;;;;;18.73;16.73;;;;;;;18.21;77.80;98711.19;4186352;28;20068;-71
2022/06/05 07:36:17;;;;;;;17.83;16.00;;;;;;;18.18;77.19;98709.22;4186403;28;20078;-71
2022/06/05 07:38:17;;;;;;;19.08;17.08;;;;;;;18.20;77.29;98713.19;4191821;28;20063;-71
2022/06/05 07:40:18;;;;;;;17.90;16.10;;;;;;;18.25;79.44;98711.91;4186495;28;20043;-71
2022/06/05 07:42:18;;;;;;;19.88;17.90;;;;;;;18.30;80.21;98707.84;4190683;28;20113;-72
2022/06/05 07:44:18;;;;;;;18.95;16.95;;;;;;;18.32;77.63;98703.41;4186104;28;20111;-71
2022/06/05 07:46:20;;;;;;;20.67;18.65;;;;;;;18.28;77.63;98708.25;4185858;28;20062;-71
2022/06/05 07:48:20;;;;;;;19.73;17.80;;;;;;;18.32;77.44;98709.00;4185605;28;20083;-72
2022/06/05 07:50:21;;;;;;;20.27;18.30;;;;;;;18.29;78.02;98709.88;4185415;28;20048;-72
2022/06/05 07:54:40;;;;;;;20.10;18.10;;;;;;;18.40;78.88;98713.28;4186320;28;20043;-72
2022/06/05 07:56:40;;;;;;;19.10;17.13;;;;;;;18.43;77.76;98704.00;4189191;27;20484;-71
2022/06/05 07:58:41;;;;;;;21.27;19.15;;;;;;;18.64;78.56;98713.28;4190320;28;20357;-71
2022/06/05 08:00:42;;;;;;;24.23;19.83;;;;;;;18.76;78.32;98701.47;4187158;28;20207;-71
2022/06/05 08:02:42;;;;;;;52.95;31.05;;;;;;;18.87;78.96;98704.91;4187411;28;20048;-72
2022/06/05 08:04:43;;;;;;;20.67;18.42;;;;;;;19.07;79.28;98711.31;4185848;28;20650;-71
2022/06/05 08:06:43;;;;;;;17.98;15.98;;;;;;;19.20;77.36;98719.13;4187318;28;20393;-72
2022/06/05 08:08:44;;;;;;;19.98;17.60;;;;;;;19.25;75.00;98719.38;4185399;28;20265;-72
2022/06/05 08:10:44;;;;;;;19.48;17.48;;;;;;;19.31;74.89;98723.28;4187639;28;20415;-72
2022/06/05 08:12:45;;;;;;;17.60;15.88;;;;;;;19.41;74.08;98729.91;4191678;28;20074;-72
2022/06/05 08:14:49;;;;;;;16.40;14.75;;;;;;;19.52;73.72;98735.28;4191906;27;20040;-72
2022/06/05 08:16:50;;;;;;;17.08;15.38;;;;;;;19.60;74.53;98729.13;4186044;28;20089;-72
2022/06/05 08:18:52;;;;;;;19.30;16.27;;;;;;;19.76;73.30;98736.81;4185130;28;20476;-72
2022/06/05 08:20:52;;;;;;;18.23;16.33;;;;;;;19.75;73.77;98726.03;4185962;28;20047;-71
2022/06/05 08:22:53;;;;;;;17.95;15.98;;;;;;;19.90;74.72;98724.50;4186049;28;20139;-72
2022/06/05 08:24:53;;;;;;;16.77;15.18;;;;;;;19.97;73.27;98715.91;4185839;28;20052;-72
2022/06/05 08:26:53;;;;;;;18.25;16.40;;;;;;;20.12;72.15;98711.56;4186857;28;20036;-72
2022/06/05 08:28:54;;;;;;;17.67;15.90;;;;;;;20.25;72.81;98691.19;4190701;28;20124;-72
2022/06/05 08:30:54;;;;;;;16.17;14.57;;;;;;;20.29;70.47;98683.47;4186983;28;20440;-72
2022/06/05 08:32:54;;;;;;;16.48;14.88;;;;;;;20.38;72.03;98666.78;4179448;28;20102;-72
2022/06/05 08:34:56;;;;;;;16.05;14.55;;;;;;;20.36;69.79;98660.84;4181806;28;20036;-72
2022/06/05 08:41:34;;;;;;;14.52;13.02;;;;;;;20.77;68.90;98651.75;4178466;28;20145;-72
2022/06/05 08:43:44;;;;;;;14.55;13.25;;;;;;;20.81;67.68;98644.00;4182264;28;20036;-72
2022/06/05 08:46:10;;;;;;;14.48;13.18;;;;;;;20.91;68.93;98647.75;4177432;28;20032;-72
2022/06/05 08:48:20;;;;;;;13.60;12.35;;;;;;;20.85;66.08;98636.28;4177977;28;20148;-72
2022/06/05 08:50:28;;;;;;;11.65;10.27;;;;;;;21.00;66.28;98645.88;4180250;28;20112;-72
2022/06/05 08:52:54;;;;;;;11.23;10.10;;;;;;;21.24;68.81;98651.25;4177281;28;20056;-72
2022/06/05 08:55:07;;;;;;;10.38;9.20;;;;;;;21.49;64.37;98656.19;4180428;28;20044;-72
2022/06/05 08:57:13;;;;;;;;;;;;;;;21.65;62.97;98658.91;4188014;27;20178;-72
2022/06/05 08:59:29;;;;;;;8.75;7.90;;;;;;;21.79;62.69;98647.22;4188504;27;19927;-72
2022/06/05 09:02:02;;;;;;;8.48;7.70;;;;;;;21.97;61.56;98645.88;4187038;28;20126;-72
2022/06/05 09:04:34;;;;;;;8.13;7.43;;;;;;;21.95;62.18;98631.44;4190098;28;20041;-72
2022/06/05 09:06:41;;;;;;;8.02;7.22;;;;;;;22.19;62.47;98629.88;4189647;28;20314;-72
2022/06/05 09:08:43;;;;;;;7.75;7.00;;;;;;;22.33;59.26;98626.56;4187700;28;20314;-72
2022/06/05 09:10:49;;;;;;;8.65;7.75;;;;;;;22.26;59.98;98626.84;4186799;28;20040;-72
2022/06/05 09:12:57;;;;;;;9.18;7.88;;;;;;;22.22;57.60;98619.72;4188424;28;20032;-73
2022/06/05 09:15:00;;;;;;;9.40;7.68;;;;;;;22.22;59.54;98619.72;4188169;28;20136;-72
2022/06/05 09:17:10;;;;;;;8.75;7.95;;;;;;;22.26;60.76;98612.75;4191965;28;20051;-72
2022/06/05 09:19:16;;;;;;;9.00;8.20;;;;;;;22.33;58.26;98615.28;4189752;27;20511;-73
2022/06/05 09:21:43;;;;;;;7.82;7.07;;;;;;;22.49;58.82;98611.53;4191807;27;20052;-72
2022/06/05 09:24:13;;;;;;;8.60;7.82;;;;;;;22.66;59.00;98603.69;4188377;28;20074;-72
2022/06/05 09:26:30;;;;;;;11.95;7.53;;;;;;;22.63;59.67;98604.63;4185983;28;20485;-72
2022/06/05 09:28:39;;;;;;;8.55;7.80;;;;;;;22.62;57.76;98603.06;4184762;28;20048;-72
2022/06/05 09:31:01;;;;;;;8.23;7.53;;;;;;;22.74;58.78;98596.56;4187942;28;20046;-73
2022/06/05 09:33:25;;;;;;;8.70;7.43;;;;;;;22.86;58.42;98590.13;4187256;28;20036;-73
2022/06/05 09:35:38;;;;;;;8.50;7.72;;;;;;;22.86;56.76;98587.31;4190833;28;20067;-72
2022/06/05 09:37:45;;;;;;;12.05;7.43;;;;;;;22.99;57.07;98584.41;4186783;27;20288;-73
2022/06/05 09:39:52;;;;;;;8.60;7.72;;;;;;;23.04;59.46;98575.38;4185415;28;20041;-73
2022/06/05 09:41:55;;;;;;;8.13;7.18;;;;;;;23.13;56.83;98578.25;4186433;28;20047;-72
2022/06/05 09:44:01;;;;;;;7.93;6.97;;;;;;;23.24;57.15;98564.50;4186014;28;20774;-72
2022/06/05 09:46:22;;;;;;;7.97;7.28;;;;;;;23.36;57.36;98565.69;4186997;28;20143;-72
2022/06/05 09:48:48;;;;;;;10.02;7.75;;;;;;;23.41;55.15;98567.09;4188266;28;20392;-73
2022/06/05 09:50:49;;;;;;;8.13;6.93;;;;;;;23.37;54.79;98552.34;4187213;28;20055;-73